createdAt,value
2018-12-22T00:00:28.950Z,999.36
2018-12-22T00:01:28.972Z,999.44
2018-12-22T00:02:28.905Z,999.47
2018-12-22T00:03:28.882Z,999.48
2018-12-22T00:04:28.864Z,999.48
2018-12-22T00:05:28.836Z,999.44
2018-12-22T00:06:28.813Z,999.44
2018-12-22T00:07:28.789Z,999.48
2018-12-22T00:08:28.768Z,999.45
2018-12-22T00:09:28.746Z,999.46
2018-12-22T00:10:28.728Z,999.48
2018-12-22T00:11:28.704Z,999.54
2018-12-22T00:12:28.788Z,999.51
2018-12-22T00:13:28.656Z,999.50
2018-12-22T00:14:28.632Z,999.52
2018-12-22T00:15:28.608Z,999.50
2018-12-22T00:16:28.587Z,999.54
2018-12-22T00:17:28.583Z,999.58
2018-12-22T00:18:28.615Z,999.60
2018-12-22T00:19:28.606Z,999.59
2018-12-22T00:20:28.503Z,999.62
2018-12-22T00:21:28.475Z,999.66
2018-12-22T00:22:28.451Z,999.72
2018-12-22T00:23:28.428Z,999.71
2018-12-22T00:24:28.406Z,999.72
2018-12-22T00:25:28.393Z,999.69
2018-12-22T00:26:28.366Z,999.64
2018-12-22T00:27:28.340Z,999.63
2018-12-22T00:28:28.317Z,999.60
2018-12-22T00:29:28.292Z,999.64
2018-12-22T00:30:28.303Z,999.61
2018-12-22T00:31:28.247Z,999.65
2018-12-22T00:32:28.231Z,999.61
2018-12-22T00:33:28.305Z,999.68
2018-12-22T00:34:28.181Z,999.64
2018-12-22T00:35:28.160Z,999.68
2018-12-22T00:36:28.135Z,999.69
2018-12-22T00:37:28.112Z,999.61
2018-12-22T00:38:28.090Z,999.62
2018-12-22T00:39:28.070Z,999.57
2018-12-22T00:40:28.045Z,999.56
2018-12-22T00:41:28.023Z,999.54
2018-12-22T00:42:28.000Z,999.58
2018-12-22T00:43:27.976Z,999.53
2018-12-22T00:44:27.952Z,999.56
2018-12-22T00:45:27.931Z,999.61
2018-12-22T00:46:27.908Z,999.62
2018-12-22T00:47:27.884Z,999.61
2018-12-22T00:48:27.862Z,999.61
2018-12-22T00:49:27.841Z,999.62
2018-12-22T00:50:27.833Z,999.60
2018-12-22T00:51:27.797Z,999.58
2018-12-22T00:52:27.772Z,999.58
2018-12-22T00:53:27.750Z,999.61
2018-12-22T00:54:27.727Z,999.63
2018-12-22T00:55:27.705Z,999.59
2018-12-22T00:56:27.680Z,999.62
2018-12-22T00:57:27.660Z,999.55
2018-12-22T00:58:30.777Z,999.59
2018-12-22T00:59:27.613Z,999.65
2018-12-22T01:00:27.593Z,999.64
2018-12-22T01:01:27.569Z,999.65
2018-12-22T01:02:27.546Z,999.62
2018-12-22T01:03:27.524Z,999.56
2018-12-22T01:04:27.502Z,999.61
2018-12-22T01:05:27.479Z,999.61
2018-12-22T01:06:27.459Z,999.63
2018-12-22T01:07:27.434Z,999.63
2018-12-22T01:08:27.410Z,999.61
2018-12-22T01:09:27.389Z,999.63
2018-12-22T01:10:27.365Z,999.65
2018-12-22T01:11:27.343Z,999.66
2018-12-22T01:12:27.322Z,999.63
2018-12-22T01:13:27.300Z,999.58
2018-12-22T01:14:27.275Z,999.57
2018-12-22T01:15:27.273Z,999.63
2018-12-22T01:16:27.231Z,999.58
2018-12-22T01:17:27.213Z,999.58
2018-12-22T01:18:27.193Z,999.61
2018-12-22T01:19:27.163Z,999.66
2018-12-22T01:20:27.145Z,999.64
2018-12-22T01:21:27.131Z,999.60
2018-12-22T01:22:27.097Z,999.63
2018-12-22T01:23:27.074Z,999.60
2018-12-22T01:24:27.052Z,999.54
2018-12-22T01:25:27.029Z,999.57
2018-12-22T01:26:27.009Z,999.55
2018-12-22T01:27:26.984Z,999.56
2018-12-22T01:28:26.968Z,999.57
2018-12-22T01:29:26.941Z,999.56
2018-12-22T01:30:26.917Z,999.64
2018-12-22T01:31:26.898Z,999.63
2018-12-22T01:32:26.874Z,999.65
2018-12-22T01:33:26.851Z,999.67
2018-12-22T01:34:26.828Z,999.70
2018-12-22T01:35:26.807Z,999.66
2018-12-22T01:36:26.887Z,999.67
2018-12-22T01:37:26.762Z,999.65
2018-12-22T01:38:26.738Z,999.69
2018-12-22T01:39:26.715Z,999.64
2018-12-22T01:40:26.693Z,999.68
2018-12-22T01:41:26.672Z,999.63
2018-12-22T01:42:26.732Z,999.66
2018-12-22T01:43:26.633Z,999.71
2018-12-22T01:44:26.607Z,999.67
2018-12-22T01:45:26.581Z,999.63
2018-12-22T01:46:26.562Z,999.65
2018-12-22T01:47:26.536Z,999.61
2018-12-22T01:48:26.515Z,999.66
2018-12-22T01:49:26.669Z,999.62
2018-12-22T01:50:26.469Z,999.61
2018-12-22T01:51:26.446Z,999.64
2018-12-22T01:52:26.424Z,999.60
2018-12-22T01:53:26.401Z,999.64
2018-12-22T01:54:26.379Z,999.66
2018-12-22T01:55:26.356Z,999.60
2018-12-22T01:56:26.333Z,999.58
2018-12-22T01:57:26.314Z,999.61
2018-12-22T01:58:26.287Z,999.60
2018-12-22T01:59:26.268Z,999.63
2018-12-22T02:00:26.247Z,999.66
2018-12-22T02:01:26.228Z,999.63
2018-12-22T02:02:26.198Z,999.63
2018-12-22T02:03:26.177Z,999.61
2018-12-22T02:04:26.152Z,999.60
2018-12-22T02:05:26.132Z,999.62
2018-12-22T02:06:26.109Z,999.61
2018-12-22T02:07:26.086Z,999.66
2018-12-22T02:08:26.064Z,999.62
2018-12-22T02:09:26.041Z,999.62
2018-12-22T02:10:26.020Z,999.63
2018-12-22T02:11:25.998Z,999.61
2018-12-22T02:12:25.973Z,999.62
2018-12-22T02:13:25.953Z,999.63
2018-12-22T02:14:25.928Z,999.61
2018-12-22T02:15:25.918Z,999.63
2018-12-22T02:16:25.884Z,999.60
2018-12-22T02:17:25.860Z,999.64
2018-12-22T02:18:25.840Z,999.64
2018-12-22T02:19:25.821Z,999.63
2018-12-22T02:20:25.794Z,999.64
2018-12-22T02:21:25.772Z,999.64
2018-12-22T02:22:25.747Z,999.61
2018-12-22T02:23:25.725Z,999.60
2018-12-22T02:24:25.703Z,999.60
2018-12-22T02:25:25.687Z,999.58
2018-12-22T02:26:25.669Z,999.57
2018-12-22T02:27:25.635Z,999.61
2018-12-22T02:28:25.614Z,999.56
2018-12-22T02:29:25.590Z,999.55
2018-12-22T02:30:25.568Z,999.54
2018-12-22T02:31:25.547Z,999.55
2018-12-22T02:32:25.526Z,999.53
2018-12-22T02:33:25.503Z,999.51
2018-12-22T02:34:25.483Z,999.48
2018-12-22T02:35:25.455Z,999.52
2018-12-22T02:36:25.433Z,999.46
2018-12-22T02:37:25.420Z,999.45
2018-12-22T02:38:25.388Z,999.44
2018-12-22T02:39:25.366Z,999.45
2018-12-22T02:40:25.344Z,999.43
2018-12-22T02:41:25.320Z,999.43
2018-12-22T02:42:25.298Z,999.39
2018-12-22T02:43:25.276Z,999.41
2018-12-22T02:44:25.260Z,999.45
2018-12-22T02:45:25.231Z,999.45
2018-12-22T02:46:25.209Z,999.49
2018-12-22T02:47:25.187Z,999.46
2018-12-22T02:48:25.163Z,999.46
2018-12-22T02:49:25.143Z,999.46
2018-12-22T02:50:25.118Z,999.40
2018-12-22T02:51:25.097Z,999.43
2018-12-22T02:52:25.075Z,999.41
2018-12-22T02:53:25.051Z,999.36
2018-12-22T02:54:25.028Z,999.39
2018-12-22T02:55:25.010Z,999.40
2018-12-22T02:56:24.984Z,999.37
2018-12-22T02:57:24.962Z,999.37
2018-12-22T02:58:24.938Z,999.37
2018-12-22T02:59:24.918Z,999.43
2018-12-22T03:00:24.896Z,999.42
2018-12-22T03:01:24.870Z,999.37
2018-12-22T03:02:24.848Z,999.35
2018-12-22T03:03:24.827Z,999.33
2018-12-22T03:04:24.804Z,999.35
2018-12-22T03:05:24.784Z,999.29
2018-12-22T03:06:24.759Z,999.29
2018-12-22T03:07:24.737Z,999.28
2018-12-22T03:08:24.716Z,999.29
2018-12-22T03:09:24.691Z,999.28
2018-12-22T03:10:24.668Z,999.26
2018-12-22T03:11:24.647Z,999.23
2018-12-22T03:12:24.623Z,999.26
2018-12-22T03:13:24.601Z,999.18
2018-12-22T03:14:24.582Z,999.19
2018-12-22T03:15:24.556Z,999.17
2018-12-22T03:16:24.534Z,999.13
2018-12-22T03:17:24.513Z,999.16
2018-12-22T03:18:24.488Z,999.15
2018-12-22T03:19:24.468Z,999.10
2018-12-22T03:20:24.443Z,999.04
2018-12-22T03:21:24.421Z,998.98
2018-12-22T03:22:24.397Z,999.00
2018-12-22T03:23:24.375Z,998.96
2018-12-22T03:24:24.354Z,998.94
2018-12-22T03:25:24.331Z,998.95
2018-12-22T03:26:24.313Z,998.96
2018-12-22T03:27:24.287Z,998.92
2018-12-22T03:28:24.266Z,998.92
2018-12-22T03:29:24.242Z,998.95
2018-12-22T03:30:24.245Z,998.81
2018-12-22T03:31:24.208Z,998.77
2018-12-22T03:32:24.174Z,998.76
2018-12-22T03:33:24.151Z,998.71
2018-12-22T03:34:24.129Z,998.69
2018-12-22T03:35:24.106Z,998.68
2018-12-22T03:36:24.082Z,998.70
2018-12-22T03:37:24.060Z,998.67
2018-12-22T03:38:24.041Z,998.65
2018-12-22T03:39:24.014Z,998.69
2018-12-22T03:40:23.992Z,998.66
2018-12-22T03:41:23.977Z,998.67
2018-12-22T03:42:23.949Z,998.59
2018-12-22T03:43:23.923Z,998.58
2018-12-22T03:44:23.906Z,998.52
2018-12-22T03:45:23.881Z,998.51
2018-12-22T03:46:23.857Z,998.50
2018-12-22T03:47:23.833Z,998.50
2018-12-22T03:48:23.812Z,998.46
2018-12-22T03:49:23.793Z,998.45
2018-12-22T03:50:23.767Z,998.39
2018-12-22T03:51:23.744Z,998.41
2018-12-22T03:52:23.722Z,998.38
2018-12-22T03:53:23.700Z,998.38
2018-12-22T03:54:23.679Z,998.35
2018-12-22T03:55:23.653Z,998.36
2018-12-22T03:56:23.631Z,998.35
2018-12-22T03:57:23.612Z,998.33
2018-12-22T03:58:23.588Z,998.30
2018-12-22T03:59:24.888Z,998.35
2018-12-22T04:00:23.551Z,998.31
2018-12-22T04:01:23.520Z,998.31
2018-12-22T04:02:23.495Z,998.36
2018-12-22T04:03:23.474Z,998.38
2018-12-22T04:04:23.450Z,998.35
2018-12-22T04:05:23.430Z,998.34
2018-12-22T04:06:23.404Z,998.37
2018-12-22T04:07:23.381Z,998.35
2018-12-22T04:08:23.357Z,998.35
2018-12-22T04:09:23.337Z,998.37
2018-12-22T04:10:23.314Z,998.34
2018-12-22T04:11:23.290Z,998.36
2018-12-22T04:12:23.292Z,998.33
2018-12-22T04:13:23.248Z,998.39
2018-12-22T04:14:23.223Z,998.39
2018-12-22T04:15:23.203Z,998.44
2018-12-22T04:16:23.178Z,998.45
2018-12-22T04:17:23.157Z,998.50
2018-12-22T04:18:23.133Z,998.55
2018-12-22T04:19:23.112Z,998.53
2018-12-22T04:20:23.088Z,998.53
2018-12-22T04:21:23.063Z,998.54
2018-12-22T04:22:23.042Z,998.59
2018-12-22T04:23:23.022Z,998.53
2018-12-22T04:24:22.999Z,998.49
2018-12-22T04:25:22.976Z,998.50
2018-12-22T04:26:22.954Z,998.50
2018-12-22T04:27:22.928Z,998.48
2018-12-22T04:28:22.907Z,998.51
2018-12-22T04:29:22.885Z,998.54
2018-12-22T04:30:22.862Z,998.52
2018-12-22T04:31:22.838Z,998.51
2018-12-22T04:32:22.815Z,998.46
2018-12-22T04:33:22.799Z,998.47
2018-12-22T04:34:22.768Z,998.41
2018-12-22T04:35:22.748Z,998.43
2018-12-22T04:36:22.728Z,998.42
2018-12-22T04:37:22.811Z,998.41
2018-12-22T04:38:22.684Z,998.44
2018-12-22T04:39:22.657Z,998.46
2018-12-22T04:40:22.633Z,998.45
2018-12-22T04:41:22.611Z,998.51
2018-12-22T04:42:22.592Z,998.51
2018-12-22T04:43:22.565Z,998.50
2018-12-22T04:44:22.542Z,998.44
2018-12-22T04:45:22.524Z,998.39
2018-12-22T04:46:22.503Z,998.35
2018-12-22T04:47:22.478Z,998.31
2018-12-22T04:48:22.452Z,998.22
2018-12-22T04:49:22.431Z,998.29
2018-12-22T04:50:22.406Z,998.31
2018-12-22T04:51:22.385Z,998.29
2018-12-22T04:52:22.364Z,998.31
2018-12-22T04:53:22.338Z,998.25
2018-12-22T04:54:22.317Z,998.24
2018-12-22T04:55:22.294Z,998.20
2018-12-22T04:56:22.270Z,998.21
2018-12-22T04:57:22.248Z,998.23
2018-12-22T04:58:22.225Z,998.20
2018-12-22T04:59:22.206Z,998.18
2018-12-22T05:00:22.181Z,998.18
2018-12-22T05:01:22.165Z,998.10
2018-12-22T05:02:22.136Z,998.08
2018-12-22T05:03:22.115Z,998.04
2018-12-22T05:04:22.090Z,998.04
2018-12-22T05:05:22.068Z,997.97
2018-12-22T05:06:22.060Z,997.98
2018-12-22T05:07:22.025Z,997.90
2018-12-22T05:08:22.002Z,997.91
2018-12-22T05:09:21.979Z,997.88
2018-12-22T05:10:21.956Z,997.86
2018-12-22T05:11:21.938Z,997.90
2018-12-22T05:12:21.911Z,997.97
2018-12-22T05:13:21.924Z,998.01
2018-12-22T05:14:21.870Z,998.02
2018-12-22T05:15:21.856Z,998.03
2018-12-22T05:16:21.823Z,998.02
2018-12-22T05:17:21.823Z,998.05
2018-12-22T05:18:21.778Z,998.04
2018-12-22T05:19:21.755Z,998.02
2018-12-22T05:20:21.733Z,998.00
2018-12-22T05:21:21.710Z,997.97
2018-12-22T05:22:21.685Z,997.92
2018-12-22T05:23:21.664Z,997.93
2018-12-22T05:24:21.642Z,997.89
2018-12-22T05:25:21.620Z,997.88
2018-12-22T05:26:21.599Z,997.84
2018-12-22T05:27:21.574Z,997.88
2018-12-22T05:28:21.555Z,997.88
2018-12-22T05:29:21.535Z,997.98
2018-12-22T05:30:21.509Z,997.99
2018-12-22T05:31:21.485Z,998.00
2018-12-22T05:32:21.463Z,997.97
2018-12-22T05:33:21.452Z,998.00
2018-12-22T05:34:21.418Z,997.94
2018-12-22T05:35:21.396Z,997.87
2018-12-22T05:36:21.376Z,998.04
2018-12-22T05:37:21.351Z,997.85
2018-12-22T05:38:21.333Z,997.77
2018-12-22T05:39:21.309Z,997.82
2018-12-22T05:40:21.287Z,997.82
2018-12-22T05:41:21.265Z,997.87
2018-12-22T05:42:21.240Z,997.86
2018-12-22T05:43:21.217Z,997.83
2018-12-22T05:44:21.195Z,997.86
2018-12-22T05:45:21.174Z,997.85
2018-12-22T05:46:21.152Z,997.88
2018-12-22T05:47:21.128Z,997.84
2018-12-22T05:48:21.106Z,997.86
2018-12-22T05:49:21.089Z,997.89
2018-12-22T05:50:21.060Z,997.88
2018-12-22T05:51:21.038Z,997.90
2018-12-22T05:52:21.016Z,997.94
2018-12-22T05:53:20.996Z,998.00
2018-12-22T05:54:20.970Z,997.98
2018-12-22T05:55:20.950Z,997.95
2018-12-22T05:56:20.927Z,997.90
2018-12-22T05:57:20.904Z,997.93
2018-12-22T05:58:20.881Z,997.90
2018-12-22T05:59:20.863Z,997.91
2018-12-22T06:00:20.838Z,997.95
2018-12-22T06:01:20.814Z,997.92
2018-12-22T06:02:20.792Z,997.93
2018-12-22T06:03:20.768Z,998.00
2018-12-22T06:04:20.747Z,997.97
2018-12-22T06:05:20.724Z,997.92
2018-12-22T06:06:20.702Z,997.89
2018-12-22T06:07:20.678Z,997.99
2018-12-22T06:08:20.657Z,997.97
2018-12-22T06:09:20.633Z,997.93
2018-12-22T06:10:20.610Z,997.90
2018-12-22T06:11:20.587Z,997.94
2018-12-22T06:12:20.565Z,998.02
2018-12-22T06:13:20.595Z,998.00
2018-12-22T06:14:20.518Z,998.21
2018-12-22T06:15:20.498Z,998.16
2018-12-22T06:16:20.474Z,998.16
2018-12-22T06:17:20.452Z,998.01
2018-12-22T06:18:20.429Z,998.28
2018-12-22T06:19:20.408Z,998.16
2018-12-22T06:20:20.387Z,998.26
2018-12-22T06:21:20.371Z,998.43
2018-12-22T06:22:20.346Z,998.27
2018-12-22T06:23:20.315Z,998.29
2018-12-22T06:24:20.296Z,998.39
2018-12-22T06:25:20.269Z,998.40
2018-12-22T06:26:20.246Z,998.31
2018-12-22T06:27:20.223Z,998.44
2018-12-22T06:28:20.204Z,998.52
2018-12-22T06:29:20.179Z,998.49
2018-12-22T06:30:20.153Z,998.51
2018-12-22T06:31:20.133Z,998.65
2018-12-22T06:32:20.109Z,998.55
2018-12-22T06:33:20.086Z,998.63
2018-12-22T06:34:20.063Z,998.60
2018-12-22T06:35:20.042Z,998.54
2018-12-22T06:36:20.018Z,998.63
2018-12-22T06:37:19.994Z,998.57
2018-12-22T06:38:19.972Z,998.69
2018-12-22T06:39:19.948Z,998.71
2018-12-22T06:40:19.927Z,998.75
2018-12-22T06:41:19.902Z,998.71
2018-12-22T06:42:19.883Z,998.76
2018-12-22T06:43:19.857Z,998.83
2018-12-22T06:44:19.836Z,998.84
2018-12-22T06:45:19.811Z,998.93
2018-12-22T06:46:19.788Z,998.94
2018-12-22T06:47:19.767Z,999.00
2018-12-22T06:48:19.744Z,999.04
2018-12-22T06:49:19.720Z,998.97
2018-12-22T06:50:19.697Z,998.97
2018-12-22T06:51:19.675Z,998.99
2018-12-22T06:52:19.652Z,999.14
2018-12-22T06:53:19.630Z,999.34
2018-12-22T06:54:19.608Z,999.12
2018-12-22T06:55:19.583Z,999.18
2018-12-22T06:56:19.565Z,999.13
2018-12-22T06:57:19.538Z,999.30
2018-12-22T06:58:19.514Z,999.32
2018-12-22T06:59:19.492Z,999.35
2018-12-22T07:00:19.470Z,999.36
2018-12-22T07:01:19.446Z,999.38
2018-12-22T07:02:19.424Z,999.37
2018-12-22T07:03:19.404Z,999.30
2018-12-22T07:04:19.398Z,999.44
2018-12-22T07:05:19.356Z,999.39
2018-12-22T07:06:19.333Z,999.36
2018-12-22T07:07:19.309Z,999.50
2018-12-22T07:08:19.288Z,999.53
2018-12-22T07:09:19.264Z,999.64
2018-12-22T07:10:19.242Z,999.72
2018-12-22T07:11:19.218Z,999.72
2018-12-22T07:12:19.197Z,999.62
2018-12-22T07:13:19.173Z,999.79
2018-12-22T07:14:19.152Z,999.67
2018-12-22T07:15:19.130Z,999.76
2018-12-22T07:16:19.105Z,999.79
2018-12-22T07:17:19.084Z,999.88
2018-12-22T07:18:19.059Z,999.89
2018-12-22T07:19:19.037Z,999.92
2018-12-22T07:20:19.013Z,1000.00
2018-12-22T07:21:19.006Z,1000.04
2018-12-22T07:22:18.971Z,1000.06
2018-12-22T07:23:18.946Z,1000.10
2018-12-22T07:24:18.925Z,1000.11
2018-12-22T07:25:18.904Z,1000.26
2018-12-22T07:26:18.880Z,1000.31
2018-12-22T07:27:18.856Z,1000.30
2018-12-22T07:28:18.834Z,1000.27
2018-12-22T07:29:18.810Z,1000.36
2018-12-22T07:30:25.935Z,1000.34
2018-12-22T07:31:18.765Z,1000.26
2018-12-22T07:32:18.743Z,1000.42
2018-12-22T07:33:18.720Z,1000.46
2018-12-22T07:34:18.696Z,1000.47
2018-12-22T07:35:18.674Z,1000.53
2018-12-22T07:36:18.687Z,1000.55
2018-12-22T07:37:18.629Z,1000.56
2018-12-22T07:38:18.606Z,1000.69
2018-12-22T07:39:18.584Z,1000.64
2018-12-22T07:40:18.578Z,1000.68
2018-12-22T07:41:18.539Z,1000.73
2018-12-22T07:42:18.518Z,1000.78
2018-12-22T07:43:18.493Z,1000.82
2018-12-22T07:44:18.469Z,1000.83
2018-12-22T07:45:18.448Z,1000.90
2018-12-22T07:46:18.424Z,1000.91
2018-12-22T07:47:18.402Z,1000.95
2018-12-22T07:48:18.380Z,1001.01
2018-12-22T07:49:18.358Z,1001.01
2018-12-22T07:50:18.333Z,1000.95
2018-12-22T07:51:18.310Z,1001.03
2018-12-22T07:52:18.291Z,1001.04
2018-12-22T07:53:18.265Z,1001.04
2018-12-22T07:54:18.244Z,1001.10
2018-12-22T07:55:18.220Z,1001.18
2018-12-22T07:56:18.198Z,1001.19
2018-12-22T07:57:18.176Z,1001.16
2018-12-22T07:58:18.152Z,1001.19
2018-12-22T07:59:18.128Z,1001.31
2018-12-22T08:00:18.110Z,1001.36
2018-12-22T08:01:19.890Z,1001.37
2018-12-22T08:02:18.061Z,1001.42
2018-12-22T08:03:18.039Z,1001.45
2018-12-22T08:04:18.017Z,1001.48
2018-12-22T08:05:17.995Z,1001.47
2018-12-22T08:06:17.971Z,1001.52
2018-12-22T08:07:17.949Z,1001.53
2018-12-22T08:08:17.926Z,1001.59
2018-12-22T08:09:17.905Z,1001.61
2018-12-22T08:10:17.879Z,1001.61
2018-12-22T08:11:17.857Z,1001.59
2018-12-22T08:12:17.872Z,1001.64
2018-12-22T08:13:17.813Z,1001.66
2018-12-22T08:14:17.789Z,1001.70
2018-12-22T08:15:17.766Z,1001.71
2018-12-22T08:16:17.748Z,1001.77
2018-12-22T08:17:17.724Z,1001.77
2018-12-22T08:18:17.699Z,1001.78
2018-12-22T08:19:17.675Z,1001.84
2018-12-22T08:20:17.654Z,1001.85
2018-12-22T08:21:17.631Z,1001.85
2018-12-22T08:22:17.608Z,1001.94
2018-12-22T08:23:17.604Z,1001.96
2018-12-22T08:24:17.563Z,1001.98
2018-12-22T08:25:17.541Z,1001.98
2018-12-22T08:26:17.517Z,1002.00
2018-12-22T08:27:17.496Z,1002.09
2018-12-22T08:28:17.473Z,1002.07
2018-12-22T08:29:17.459Z,1002.16
2018-12-22T08:30:17.429Z,1002.14
2018-12-22T08:31:17.405Z,1002.14
2018-12-22T08:32:17.405Z,1002.21
2018-12-22T08:33:17.361Z,1002.18
2018-12-22T08:34:17.335Z,1002.27
2018-12-22T08:35:17.313Z,1002.26
2018-12-22T08:36:17.293Z,1002.27
2018-12-22T08:37:17.271Z,1002.31
2018-12-22T08:38:17.246Z,1002.29
2018-12-22T08:39:17.232Z,1002.38
2018-12-22T08:40:17.202Z,1002.40
2018-12-22T08:41:17.184Z,1002.42
2018-12-22T08:42:17.157Z,1002.49
2018-12-22T08:43:17.134Z,1002.51
2018-12-22T08:44:17.113Z,1002.53
2018-12-22T08:45:17.089Z,1002.63
2018-12-22T08:46:17.066Z,1002.65
2018-12-22T08:47:17.043Z,1002.69
2018-12-22T08:48:17.023Z,1002.72
2018-12-22T08:49:16.999Z,1002.75
2018-12-22T08:50:16.977Z,1002.80
2018-12-22T08:51:16.952Z,1002.81
2018-12-22T08:52:16.930Z,1002.81
2018-12-22T08:53:16.911Z,1002.85
2018-12-22T08:54:16.896Z,1002.88
2018-12-22T08:55:16.864Z,1002.96
2018-12-22T08:56:16.840Z,1002.95
2018-12-22T08:57:16.843Z,1002.99
2018-12-22T08:58:16.796Z,1002.97
2018-12-22T08:59:16.773Z,1003.03
2018-12-22T09:00:16.768Z,1003.05
2018-12-22T09:01:16.731Z,1003.11
2018-12-22T09:02:16.706Z,1003.15
2018-12-22T09:03:16.685Z,1003.21
2018-12-22T09:04:16.664Z,1003.18
2018-12-22T09:05:16.640Z,1003.17
2018-12-22T09:06:16.620Z,1003.21
2018-12-22T09:07:16.603Z,1003.23
2018-12-22T09:08:16.571Z,1003.25
2018-12-22T09:09:16.548Z,1003.31
2018-12-22T09:10:16.524Z,1003.31
2018-12-22T09:11:16.502Z,1003.35
2018-12-22T09:12:16.481Z,1003.40
2018-12-22T09:13:20.825Z,1003.41
2018-12-22T09:14:16.436Z,1003.42
2018-12-22T09:15:16.415Z,1003.46
2018-12-22T09:16:16.389Z,1003.52
2018-12-22T09:17:16.368Z,1003.52
2018-12-22T09:18:16.345Z,1003.50
2018-12-22T09:19:16.323Z,1003.53
2018-12-22T09:20:16.300Z,1003.60
2018-12-22T09:21:16.278Z,1003.64
2018-12-22T09:22:16.254Z,1003.67
2018-12-22T09:23:16.232Z,1003.65
2018-12-22T09:24:16.211Z,1003.69
2018-12-22T09:25:16.189Z,1003.71
2018-12-22T09:26:16.219Z,1003.72
2018-12-22T09:27:16.149Z,1003.77
2018-12-22T09:28:16.124Z,1003.74
2018-12-22T09:29:16.128Z,1003.78
2018-12-22T09:30:16.077Z,1003.80
2018-12-22T09:31:16.052Z,1003.80
2018-12-22T09:32:16.028Z,1003.81
2018-12-22T09:33:16.008Z,1003.86
2018-12-22T09:34:15.982Z,1003.93
2018-12-22T09:35:15.964Z,1003.92
2018-12-22T09:36:15.946Z,1003.95
2018-12-22T09:37:15.947Z,1003.96
2018-12-22T09:38:15.892Z,1003.98
2018-12-22T09:39:15.869Z,1004.03
2018-12-22T09:40:15.851Z,1004.01
2018-12-22T09:41:15.826Z,1004.03
2018-12-22T09:42:15.812Z,1004.05
2018-12-22T09:43:15.780Z,1004.07
2018-12-22T09:44:15.756Z,1004.12
2018-12-22T09:45:15.735Z,1004.12
2018-12-22T09:46:15.732Z,1004.12
2018-12-22T09:47:15.689Z,1004.14
2018-12-22T09:48:15.669Z,1004.19
2018-12-22T09:49:15.645Z,1004.20
2018-12-22T09:50:15.622Z,1004.17
2018-12-22T09:51:15.600Z,1004.17
2018-12-22T09:52:15.580Z,1004.19
2018-12-22T09:53:15.553Z,1004.20
2018-12-22T09:54:15.532Z,1004.21
2018-12-22T09:55:15.508Z,1004.20
2018-12-22T09:56:15.488Z,1004.23
2018-12-22T09:57:15.464Z,1004.19
2018-12-22T09:58:15.440Z,1004.19
2018-12-22T09:59:15.417Z,1004.23
2018-12-22T10:00:15.400Z,1004.21
2018-12-22T10:01:15.378Z,1004.25
2018-12-22T10:02:15.378Z,1004.18
2018-12-22T10:03:15.395Z,1004.25
2018-12-22T10:04:15.510Z,1004.22
2018-12-22T10:05:16.085Z,1004.23
2018-12-22T10:06:15.273Z,1004.29
2018-12-22T10:07:15.239Z,1004.31
2018-12-22T10:08:15.217Z,1004.29
2018-12-22T10:09:15.192Z,1004.27
2018-12-22T10:10:15.197Z,1004.32
2018-12-22T10:11:15.212Z,1004.30
2018-12-22T10:12:15.124Z,1004.33
2018-12-22T10:13:15.188Z,1004.32
2018-12-22T10:14:15.083Z,1004.38
2018-12-22T10:15:15.124Z,1004.30
2018-12-22T10:16:15.034Z,1004.38
2018-12-22T10:17:15.014Z,1004.40
2018-12-22T10:18:14.989Z,1004.34
2018-12-22T10:19:14.967Z,1004.44
2018-12-22T10:20:14.945Z,1004.44
2018-12-22T10:21:15.000Z,1004.42
2018-12-22T10:22:15.882Z,1004.44
2018-12-22T10:23:14.879Z,1004.42
2018-12-22T10:24:14.976Z,1004.45
2018-12-22T10:25:14.831Z,1004.42
2018-12-22T10:26:14.818Z,1004.45
2018-12-22T10:27:14.909Z,1004.43
2018-12-22T10:28:14.765Z,1004.48
2018-12-22T10:29:14.739Z,1004.45
2018-12-22T10:30:14.715Z,1004.46
2018-12-22T10:31:18.156Z,1004.46
2018-12-22T10:32:14.671Z,1004.47
2018-12-22T10:33:14.651Z,1004.50
2018-12-22T10:34:14.624Z,1004.47
2018-12-22T10:35:14.671Z,1004.49
2018-12-22T10:36:14.578Z,1004.46
2018-12-22T10:37:14.580Z,1004.47
2018-12-22T10:38:14.532Z,1004.43
2018-12-22T10:39:14.570Z,1004.52
2018-12-22T10:40:14.491Z,1004.57
2018-12-22T10:41:14.467Z,1004.52
2018-12-22T10:42:14.490Z,1004.59
2018-12-22T10:43:14.461Z,1004.63
2018-12-22T10:44:14.471Z,1004.62
2018-12-22T10:45:14.374Z,1004.60
2018-12-22T10:46:14.368Z,1004.55
2018-12-22T10:47:14.375Z,1004.66
2018-12-22T10:48:14.306Z,1004.68
2018-12-22T10:49:14.339Z,1004.79
2018-12-22T10:50:14.261Z,1004.77
2018-12-22T10:51:14.286Z,1004.77
2018-12-22T10:52:14.215Z,1004.72
2018-12-22T10:53:14.192Z,1004.75
2018-12-22T10:54:14.169Z,1004.80
2018-12-22T10:55:14.147Z,1004.74
2018-12-22T10:56:14.130Z,1004.78
2018-12-22T10:57:14.104Z,1004.80
2018-12-22T10:58:14.079Z,1004.79
2018-12-22T10:59:14.057Z,1004.82
2018-12-22T11:00:14.061Z,1004.76
2018-12-22T11:01:14.011Z,1004.85
2018-12-22T11:02:13.987Z,1004.82
2018-12-22T11:03:13.982Z,1004.79
2018-12-22T11:04:13.943Z,1004.80
2018-12-22T11:05:13.922Z,1004.70
2018-12-22T11:06:13.947Z,1004.76
2018-12-22T11:07:13.958Z,1004.70
2018-12-22T11:08:13.909Z,1004.76
2018-12-22T11:09:13.862Z,1004.76
2018-12-22T11:10:13.920Z,1004.81
2018-12-22T11:11:13.834Z,1004.89
2018-12-22T11:12:13.770Z,1004.85
2018-12-22T11:13:13.740Z,1004.91
2018-12-22T11:14:13.715Z,1004.89
2018-12-22T11:15:13.697Z,1004.89
2018-12-22T11:16:13.670Z,1004.90
2018-12-22T11:17:13.728Z,1004.92
2018-12-22T11:18:13.623Z,1004.88
2018-12-22T11:19:13.694Z,1004.93
2018-12-22T11:20:13.580Z,1004.95
2018-12-22T11:21:13.556Z,1005.08
2018-12-22T11:22:13.533Z,1005.04
2018-12-22T11:23:20.468Z,1005.02
2018-12-22T11:24:13.488Z,1005.02
2018-12-22T11:25:13.518Z,1005.03
2018-12-22T11:26:13.444Z,1004.96
2018-12-22T11:27:13.420Z,1004.98
2018-12-22T11:28:13.398Z,1005.01
2018-12-22T11:29:13.375Z,1004.95
2018-12-22T11:30:13.356Z,1004.95
2018-12-22T11:31:13.334Z,1004.94
2018-12-22T11:32:13.305Z,1005.00
2018-12-22T11:33:13.285Z,1005.01
2018-12-22T11:34:13.260Z,1005.04
2018-12-22T11:35:13.241Z,1005.08
2018-12-22T11:36:13.216Z,1005.05
2018-12-22T11:37:13.195Z,1005.06
2018-12-22T11:38:13.195Z,1005.12
2018-12-22T11:39:13.151Z,1005.14
2018-12-22T11:40:13.127Z,1005.10
2018-12-22T11:41:13.105Z,1005.10
2018-12-22T11:42:13.083Z,1005.12
2018-12-22T11:43:13.059Z,1005.10
2018-12-22T11:44:13.038Z,1005.13
2018-12-22T11:45:13.017Z,1005.22
2018-12-22T11:46:12.990Z,1005.21
2018-12-22T11:47:12.970Z,1005.27
2018-12-22T11:48:12.948Z,1005.27
2018-12-22T11:49:12.929Z,1005.25
2018-12-22T11:50:12.902Z,1005.27
2018-12-22T11:51:12.879Z,1005.35
2018-12-22T11:52:12.858Z,1005.30
2018-12-22T11:53:12.836Z,1005.27
2018-12-22T11:54:12.815Z,1005.22
2018-12-22T11:55:12.792Z,1005.24
2018-12-22T11:56:12.772Z,1005.21
2018-12-22T11:57:12.748Z,1005.26
2018-12-22T11:58:12.725Z,1005.18
2018-12-22T11:59:12.704Z,1005.21
2018-12-22T12:00:12.680Z,1005.24
2018-12-22T12:01:12.659Z,1005.27
2018-12-22T12:02:12.639Z,1005.18
2018-12-22T12:03:12.615Z,1005.17
2018-12-22T12:04:12.593Z,1005.20
2018-12-22T12:05:12.572Z,1005.17
2018-12-22T12:06:12.548Z,1005.22
2018-12-22T12:07:12.527Z,1005.25
2018-12-22T12:08:12.506Z,1005.25
2018-12-22T12:09:12.484Z,1005.17
2018-12-22T12:10:12.460Z,1005.16
2018-12-22T12:11:12.441Z,1005.25
2018-12-22T12:12:12.416Z,1005.28
2018-12-22T12:13:12.394Z,1005.21
2018-12-22T12:14:12.398Z,1005.25
2018-12-22T12:15:12.372Z,1005.28
2018-12-22T12:16:12.333Z,1005.22
2018-12-22T12:17:12.319Z,1005.24
2018-12-22T12:18:12.284Z,1005.22
2018-12-22T12:19:12.266Z,1005.24